Time;durP1;ratioP1;P1;durP2;ratioP2;P2;SDS_P1;SDS_P2;PMS_P1;PMS_P2;Temp;Humidity;BMP_temperature;BMP_pressure;BME280_temperature;BME280_humidity;BME280_pressure;Samples;Min_cycle;Max_cycle;Signal;HPM_P1;HPM_P2
2023/02/06 09:47:45;;;;;;;13.63;4.17;;;6.80;99.90;;;;;;4953621;23;20295;-74
2023/02/06 09:50:23;;;;;;;17.60;5.07;;;6.80;99.90;;;;;;4937995;29;20216;-76
2023/02/06 09:53:02;;;;;;;19.10;4.50;;;6.80;99.90;;;;;;4937599;29;20246;-73
2023/02/06 09:55:37;;;;;;;22.33;4.40;;;7.00;99.90;;;;;;4937443;29;20209;-76
2023/02/06 09:58:14;;;;;;;12.43;3.97;;;7.10;99.90;;;;;;4937507;29;20726;-78
2023/02/06 10:00:48;;;;;;;10.17;3.87;;;7.30;99.90;;;;;;4937739;29;20615;-77
2023/02/06 10:03:35;;;;;;;21.13;4.33;;;7.30;99.90;;;;;;4937383;29;20235;-75
2023/02/06 10:06:12;;;;;;;16.30;3.30;;;7.40;99.90;;;;;;4937104;29;20212;-77
2023/02/06 10:08:43;;;;;;;12.13;3.50;;;7.10;99.90;;;;;;4937363;29;20208;-76
2023/02/06 10:11:15;;;;;;;10.97;2.97;;;7.10;99.90;;;;;;4938044;29;20204;-77
2023/02/06 10:13:48;;;;;;;15.93;3.43;;;7.20;99.90;;;;;;4938383;29;20240;-76
2023/02/06 10:16:36;;;;;;;21.03;3.07;;;7.00;99.90;;;;;;4930370;29;20209;-74
2023/02/06 10:19:09;;;;;;;13.70;2.90;;;6.50;99.90;;;;;;4935720;29;20563;-72
2023/02/06 10:21:40;;;;;;;15.07;3.37;;;6.60;99.90;;;;;;4936261;29;20223;-74
2023/02/06 10:24:13;;;;;;;15.27;3.40;;;7.00;99.90;;;;;;4935816;29;20596;-73
2023/02/06 10:26:40;;;;;;;15.97;3.43;;;6.70;99.90;;;;;;4914352;29;20288;-73
2023/02/06 10:29:14;;;;;;;12.37;2.97;;;6.70;99.90;;;;;;4917424;29;20221;-73
2023/02/06 10:31:59;;;;;;;9.87;2.77;;;6.90;99.90;;;;;;4918151;29;20308;-73
2023/02/06 10:34:40;;;;;;;12.93;3.63;;;6.90;99.90;;;;;;4934722;29;20243;-73
2023/02/06 10:37:28;;;;;;;13.77;2.70;;;7.10;99.90;;;;;;4927129;29;20215;-72
2023/02/06 10:40:03;;;;;;;17.03;4.03;;;7.60;99.90;;;;;;4915957;29;20209;-72
2023/02/06 10:42:43;;;;;;;13.93;2.73;;;7.80;99.90;;;;;;4916211;29;20212;-71
2023/02/06 10:45:15;;;;;;;15.63;2.83;;;8.00;99.90;;;;;;4916316;29;20209;-74
2023/02/06 10:47:48;;;;;;;14.33;2.70;;;7.90;99.90;;;;;;4915698;29;20218;-73
2023/02/06 10:50:23;;;;;;;11.97;2.93;;;7.80;99.90;;;;;;4928851;29;20206;-70
2023/02/06 10:52:51;;;;;;;7.63;2.23;;;7.70;99.90;;;;;;4916045;29;20248;-70
2023/02/06 10:55:22;;;;;;;11.73;2.50;;;7.80;99.90;;;;;;4916364;29;20218;-70
2023/02/06 10:58:06;;;;;;;18.77;3.47;;;7.50;99.90;;;;;;4915601;29;20214;-72
2023/02/06 11:00:33;;;;;;;18.33;2.53;;;7.50;99.90;;;;;;4915617;29;20210;-72
2023/02/06 11:03:05;;;;;;;13.97;2.20;;;7.40;99.90;;;;;;4915763;29;20237;-75
2023/02/06 11:05:33;;;;;;;11.43;2.47;;;7.50;99.90;;;;;;4916072;29;20637;-72
2023/02/06 11:08:10;;;;;;;4.17;1.60;;;7.20;99.90;;;;;;4915718;29;20224;-73
2023/02/06 11:10:36;;;;;;;10.57;2.00;;;7.30;99.90;;;;;;4916026;29;20206;-72
2023/02/06 11:13:07;;;;;;;18.60;2.20;;;7.30;99.90;;;;;;4915746;29;20729;-71
2023/02/06 11:15:38;;;;;;;6.80;1.73;;;7.30;99.90;;;;;;4916149;29;20256;-71
2023/02/06 11:18:09;;;;;;;5.23;1.60;;;7.30;99.90;;;;;;4915586;29;20209;-70
2023/02/06 11:20:41;;;;;;;10.87;1.70;;;7.60;99.90;;;;;;4915585;29;20643;-71
2023/02/06 11:23:17;;;;;;;7.50;1.70;;;7.70;99.90;;;;;;4915693;29;20233;-71
2023/02/06 11:25:45;;;;;;;10.23;1.60;;;7.90;99.90;;;;;;4923130;29;20208;-71
2023/02/06 11:28:15;;;;;;;8.77;2.27;;;7.70;99.90;;;;;;4921144;29;20216;-71
2023/02/06 11:30:56;;;;;;;11.83;1.93;;;7.60;99.90;;;;;;4915594;29;20232;-71
2023/02/06 11:33:29;;;;;;;12.00;1.80;;;7.70;99.90;;;;;;4915288;29;20299;-71
2023/02/06 11:35:58;;;;;;;9.20;1.90;;;7.90;99.90;;;;;;4914927;29;20744;-71
2023/02/06 11:38:28;;;;;;;12.33;2.47;;;7.80;99.90;;;;;;4915281;29;20218;-71
2023/02/06 11:40:59;;;;;;;9.63;1.67;;;7.80;99.90;;;;;;4915568;29;20212;-71
2023/02/06 11:43:28;;;;;;;5.83;1.90;;;7.70;99.90;;;;;;4915584;29;20230;-71
2023/02/06 11:46:24;;;;;;;8.57;2.10;;;7.40;99.90;;;;;;4915062;29;20221;-71
2023/02/06 11:49:03;;;;;;;12.53;2.03;;;7.40;99.90;;;;;;4872235;29;20214;-71
2023/02/06 11:51:48;;;;;;;5.67;1.53;;;7.60;99.90;;;;;;4915848;29;20216;-71
2023/02/06 11:54:27;;;;;;;10.97;1.87;;;7.60;99.90;;;;;;4915044;29;20604;-71
2023/02/06 11:57:02;;;;;;;13.13;1.90;;;7.70;99.90;;;;;;4915236;29;20588;-71
2023/02/06 11:59:32;;;;;;;13.03;2.23;;;8.00;99.90;;;;;;4916498;29;20221;-71
2023/02/06 12:02:04;;;;;;;12.53;1.57;;;7.80;99.90;;;;;;4921793;29;20209;-71
2023/02/06 12:04:34;;;;;;;6.87;1.80;;;7.80;99.90;;;;;;4922010;29;20240;-71
2023/02/06 12:07:10;;;;;;;7.90;1.33;;;7.70;99.90;;;;;;4921708;29;20212;-72
2023/02/06 12:09:37;;;;;;;11.10;1.80;;;7.60;99.90;;;;;;4921497;29;20209;-73
2023/02/06 12:12:13;;;;;;;7.90;1.83;;;7.50;99.90;;;;;;4921638;29;20219;-72
2023/02/06 12:14:46;;;;;;;15.33;1.43;;;7.30;99.90;;;;;;4921404;29;20244;-70
2023/02/06 12:17:23;;;;;;;7.70;1.80;;;7.10;99.90;;;;;;4921523;29;20206;-73
2023/02/06 12:19:57;;;;;;;7.97;1.50;;;7.10;99.90;;;;;;4920973;29;20209;-70
2023/02/06 12:22:25;;;;;;;7.47;1.60;;;7.30;99.90;;;;;;4921541;29;20213;-69
2023/02/06 12:24:55;;;;;;;6.90;1.10;;;7.60;99.90;;;;;;4922325;29;20197;-71
2023/02/06 12:27:27;;;;;;;9.60;1.53;;;7.70;99.90;;;;;;4933557;29;20209;-70
2023/02/06 12:30:00;;;;;;;12.50;1.70;;;7.70;99.90;;;;;;4920986;29;20220;-73
2023/02/06 12:32:31;;;;;;;11.30;1.20;;;7.80;99.90;;;;;;4921127;29;20217;-70
2023/02/06 12:35:01;;;;;;;8.63;1.37;;;7.80;99.90;;;;;;4921730;29;20209;-72
2023/02/06 12:37:38;;;;;;;10.30;1.40;;;7.80;99.90;;;;;;4921744;29;20209;-74
2023/02/06 12:40:13;;;;;;;4.67;1.30;;;7.60;99.90;;;;;;4921043;29;20214;-74
2023/02/06 12:42:47;;;;;;;17.43;1.63;;;7.60;99.90;;;;;;4921457;29;20240;-74
2023/02/06 12:45:23;;;;;;;5.90;1.80;;;7.10;99.90;;;;;;4921153;29;20672;-77
2023/02/06 12:47:54;;;;;;;8.50;1.80;;;7.00;99.90;;;;;;4921075;29;20209;-81
2023/02/06 12:50:25;;;;;;;11.67;1.80;;;6.90;99.90;;;;;;4920578;29;20572;-73
2023/02/06 12:53:00;;;;;;;10.60;1.70;;;6.70;99.90;;;;;;4920851;29;20259;-72
2023/02/06 12:55:31;;;;;;;11.17;1.97;;;6.90;99.90;;;;;;4920956;29;20213;-72
2023/02/06 12:57:58;;;;;;;10.57;1.57;;;7.00;99.90;;;;;;4921101;29;20299;-73
2023/02/06 13:00:46;;;;;;;5.87;1.53;;;7.00;99.90;;;;;;4920970;29;20209;-72
2023/02/06 13:03:43;;;;;;;9.17;1.50;;;7.20;99.90;;;;;;4920892;29;20305;-74
2023/02/06 13:06:17;;;;;;;5.83;1.60;;;7.30;99.90;;;;;;4905563;29;20217;-71
2023/02/06 13:08:49;;;;;;;11.70;1.50;;;7.60;99.90;;;;;;4920843;29;20213;-72
2023/02/06 13:11:31;;;;;;;8.90;2.43;;;7.80;99.90;;;;;;4920106;29;20220;-70
2023/02/06 13:14:04;;;;;;;8.37;1.53;;;8.20;99.90;;;;;;4917852;29;20332;-70
2023/02/06 13:16:44;;;;;;;8.63;2.07;;;8.30;99.90;;;;;;4917602;29;20549;-70
2023/02/06 13:19:30;;;;;;;11.10;1.97;;;8.10;99.90;;;;;;4918056;29;20205;-70
2023/02/06 13:22:37;;;;;;;4.97;1.40;;;8.10;99.90;;;;;;4917666;29;20214;-69
2023/02/06 13:25:36;;;;;;;12.57;2.37;;;7.90;99.90;;;;;;4913900;29;20218;-70
2023/02/06 13:28:42;;;;;;;6.47;1.33;;;7.40;99.90;;;;;;4914148;29;20576;-69
2023/02/06 13:31:22;;;;;;;7.57;1.70;;;7.40;99.90;;;;;;4917915;29;20206;-71
2023/02/06 13:33:52;;;;;;;5.53;1.50;;;7.10;99.90;;;;;;4917364;29;20245;-72
2023/02/06 13:36:27;;;;;;;9.20;1.97;;;6.90;99.90;;;;;;4917460;29;20221;-72
2023/02/06 13:39:12;;;;;;;2.20;0.83;;;6.80;99.90;;;;;;4917157;29;20221;-74
2023/02/06 13:41:41;;;;;;;12.23;1.50;;;7.10;99.90;;;;;;4917387;29;20209;-73
2023/02/06 13:44:18;;;;;;;15.50;1.70;;;7.40;99.90;;;;;;4916545;29;20260;-71
2023/02/06 13:47:17;;;;;;;12.07;1.77;;;7.40;99.90;;;;;;4917110;29;20240;-74
2023/02/06 13:50:21;;;;;;;5.90;1.77;;;7.30;99.90;;;;;;4917302;29;20296;-74
2023/02/06 13:53:02;;;;;;;8.07;1.47;;;7.40;99.90;;;;;;4917281;29;20244;-73
2023/02/06 13:55:47;;;;;;;7.60;1.63;;;7.20;99.90;;;;;;4917540;29;20260;-75
2023/02/06 13:58:37;;;;;;;9.33;1.77;;;7.20;99.90;;;;;;4917408;29;20224;-74
2023/02/06 14:01:13;;;;;;;9.70;1.73;;;7.00;99.90;;;;;;4917235;29;20680;-73
2023/02/06 14:03:44;;;;;;;9.53;1.50;;;7.20;99.90;;;;;;4916650;29;20258;-73
2023/02/06 14:06:26;;;;;;;9.70;1.30;;;7.10;99.90;;;;;;4916985;29;20216;-71
2023/02/06 14:09:03;;;;;;;9.07;1.60;;;7.20;99.90;;;;;;4917577;29;20209;-75
2023/02/06 14:14:46;;;;;;;7.10;1.33;;;7.30;99.90;;;;;;4917246;29;20267;-73
2023/02/06 14:17:43;;;;;;;9.53;1.60;;;7.70;99.90;;;;;;4917122;29;20220;-72
2023/02/06 14:20:29;;;;;;;7.37;1.40;;;7.90;99.90;;;;;;4916612;29;20681;-72
2023/02/06 14:23:05;;;;;;;6.53;1.43;;;8.00;99.90;;;;;;4916317;29;20237;-76
2023/02/06 14:25:48;;;;;;;8.03;2.07;;;7.80;99.90;;;;;;4917191;29;20241;-74
2023/02/06 14:28:22;;;;;;;5.33;1.17;;;7.90;99.90;;;;;;4916562;29;20206;-74
2023/02/06 14:30:58;;;;;;;7.50;1.30;;;8.00;99.90;;;;;;4916831;29;20205;-75
2023/02/06 14:33:44;;;;;;;12.70;1.33;;;8.20;99.90;;;;;;4916596;29;20233;-75
2023/02/06 14:36:23;;;;;;;8.60;1.53;;;7.90;99.90;;;;;;4916474;29;20217;-76
2023/02/06 14:39:09;;;;;;;8.53;1.90;;;8.00;99.90;;;;;;4916041;29;20214;-78
2023/02/06 14:41:38;;;;;;;9.37;1.83;;;7.60;99.90;;;;;;4916185;29;20221;-75
2023/02/06 14:44:10;;;;;;;9.77;1.63;;;7.60;99.90;;;;;;4916173;29;20724;-72
2023/02/06 14:46:40;;;;;;;6.37;2.37;;;7.80;99.90;;;;;;4915793;29;20217;-74
2023/02/06 14:49:15;;;;;;;8.00;1.90;;;7.70;99.90;;;;;;4916620;29;20210;-72
2023/02/06 14:51:42;;;;;;;8.73;1.90;;;7.70;99.90;;;;;;4915801;29;20213;-73
2023/02/06 14:54:30;;;;;;;11.20;1.80;;;7.80;99.90;;;;;;4915700;29;20723;-72
2023/02/06 14:56:58;;;;;;;8.47;1.70;;;7.70;99.90;;;;;;4916163;29;20209;-73
2023/02/06 14:59:25;;;;;;;8.30;1.77;;;7.70;99.90;;;;;;4916332;29;20596;-73
2023/02/06 15:01:54;;;;;;;12.30;2.97;;;7.90;99.90;;;;;;4916123;29;20256;-72
2023/02/06 15:04:24;;;;;;;10.33;1.90;;;7.80;99.90;;;;;;4915497;29;20234;-73
2023/02/06 15:06:53;;;;;;;4.93;1.63;;;7.80;99.90;;;;;;4915827;29;20209;-73
2023/02/06 15:09:28;;;;;;;6.03;1.80;;;7.90;99.90;;;;;;4915774;29;20297;-73
2023/02/06 15:11:56;;;;;;;8.50;2.43;;;7.80;99.90;;;;;;4916060;29;20215;-73
2023/02/06 15:14:25;;;;;;;11.57;2.30;;;7.60;99.90;;;;;;4918312;29;20238;-73
2023/02/06 15:16:55;;;;;;;10.80;2.77;;;7.60;99.90;;;;;;4916601;29;20296;-75
2023/02/06 15:19:26;;;;;;;4.93;1.97;;;7.80;99.90;;;;;;4915960;29;20214;-74
2023/02/06 15:21:59;;;;;;;9.50;2.40;;;7.70;99.90;;;;;;4915563;29;20217;-71
2023/02/06 15:24:52;;;;;;;10.00;3.00;;;7.50;99.90;;;;;;4915589;29;20253;-72
2023/02/06 15:27:26;;;;;;;6.47;1.77;;;7.50;99.90;;;;;;4915287;29;20298;-75
2023/02/06 15:29:54;;;;;;;14.43;2.53;;;7.50;99.90;;;;;;4915961;29;20223;-74
2023/02/06 15:32:28;;;;;;;8.60;2.60;;;7.30;99.90;;;;;;4915787;29;20237;-71
2023/02/06 15:34:57;;;;;;;8.20;2.80;;;7.30;99.90;;;;;;4914681;29;20293;-75
2023/02/06 15:37:28;;;;;;;7.13;1.90;;;7.30;99.90;;;;;;4915443;29;20576;-72
2023/02/06 15:39:59;;;;;;;5.27;2.00;;;7.40;99.90;;;;;;4915652;29;20624;-72
2023/02/06 15:42:32;;;;;;;6.80;2.33;;;7.40;99.90;;;;;;4915703;29;20213;-72
2023/02/06 15:45:00;;;;;;;10.83;2.00;;;7.40;99.90;;;;;;4915522;29;20213;-73
2023/02/06 15:47:27;;;;;;;13.13;2.37;;;7.30;99.90;;;;;;4914934;29;20227;-72
2023/02/06 15:49:59;;;;;;;9.60;2.20;;;7.20;99.90;;;;;;4914932;29;20240;-72
2023/02/06 15:52:34;;;;;;;8.27;2.50;;;7.20;99.90;;;;;;4915084;29;20222;-74
2023/02/06 15:55:02;;;;;;;11.73;2.47;;;7.10;99.90;;;;;;4915713;29;20327;-70
2023/02/06 15:57:32;;;;;;;8.57;2.00;;;7.20;99.90;;;;;;4916150;29;20274;-73
2023/02/06 15:59:59;;;;;;;10.37;2.17;;;7.30;99.90;;;;;;4915515;29;20304;-74
2023/02/06 16:02:33;;;;;;;9.57;2.30;;;7.30;99.90;;;;;;4915042;29;20283;-75
2023/02/06 16:05:02;;;;;;;6.47;1.93;;;7.20;99.90;;;;;;4931581;29;20209;-72
2023/02/06 16:07:32;;;;;;;4.43;1.80;;;7.00;99.90;;;;;;4935821;29;20208;-73
2023/02/06 16:10:04;;;;;;;8.47;1.80;;;7.10;99.90;;;;;;4935635;29;20542;-72
2023/02/06 16:12:34;;;;;;;4.63;1.57;;;7.00;99.90;;;;;;4935333;29;20208;-72
2023/02/06 16:15:03;;;;;;;4.87;1.20;;;6.80;99.90;;;;;;4934698;29;20237;-72
2023/02/06 16:17:33;;;;;;;7.43;1.10;;;6.60;99.90;;;;;;4934901;29;20219;-71
2023/02/06 16:20:03;;;;;;;12.17;1.63;;;6.50;99.90;;;;;;4935501;29;20234;-74
2023/02/06 16:22:32;;;;;;;4.83;1.00;;;6.40;99.90;;;;;;4935349;29;20304;-71
2023/02/06 16:25:21;;;;;;;4.23;1.10;;;6.30;99.90;;;;;;4935476;29;20213;-73
2023/02/06 16:27:50;;;;;;;6.40;1.00;;;6.10;99.90;;;;;;4935056;29;20241;-74
2023/02/06 16:30:26;;;;;;;4.73;1.53;;;6.00;99.90;;;;;;4935239;29;20219;-74
2023/02/06 16:32:55;;;;;;;3.53;1.00;;;5.90;99.90;;;;;;4935117;29;20228;-74
2023/02/06 16:35:24;;;;;;;5.60;1.50;;;6.00;99.90;;;;;;4935032;29;20262;-71
2023/02/06 16:37:52;;;;;;;6.40;1.57;;;5.90;99.90;;;;;;4935058;29;20299;-71
2023/02/06 16:40:19;;;;;;;8.93;2.33;;;5.80;99.90;;;;;;4935036;29;20216;-73
2023/02/06 16:42:46;;;;;;;7.03;1.90;;;5.80;99.90;;;;;;4935125;29;20323;-74
2023/02/06 16:45:21;;;;;;;9.87;1.90;;;5.90;99.90;;;;;;4935263;29;20231;-74
2023/02/06 16:47:48;;;;;;;7.83;2.00;;;5.90;99.90;;;;;;4938123;29;20211;-73
2023/02/06 16:50:16;;;;;;;5.57;2.00;;;5.90;99.90;;;;;;4938837;29;20205;-73
2023/02/06 16:52:48;;;;;;;11.90;2.50;;;5.90;99.90;;;;;;4938921;29;20247;-73
2023/02/06 16:55:18;;;;;;;8.70;2.27;;;5.90;99.90;;;;;;4938511;29;20683;-73
2023/02/06 16:57:46;;;;;;;11.57;3.43;;;6.00;99.90;;;;;;4938556;29;20244;-73
2023/02/06 17:00:18;;;;;;;28.00;5.03;;;6.20;99.90;;;;;;4938658;29;20209;-73
2023/02/06 17:02:46;;;;;;;9.13;2.70;;;6.00;99.90;;;;;;4938287;29;20734;-73
2023/02/06 17:05:14;;;;;;;11.33;3.70;;;6.00;99.90;;;;;;4938262;29;20215;-73
2023/02/06 17:07:41;;;;;;;14.80;4.67;;;5.90;99.90;;;;;;4938374;29;20688;-74
2023/02/06 17:10:12;;;;;;;11.67;3.70;;;5.90;99.90;;;;;;4938312;29;20212;-73
2023/02/06 17:12:40;;;;;;;15.13;4.37;;;5.90;99.90;;;;;;4937880;29;20694;-73
2023/02/06 17:15:07;;;;;;;13.13;4.13;;;5.80;99.90;;;;;;4938253;29;20257;-73
2023/02/06 17:17:34;;;;;;;12.33;3.20;;;5.70;99.90;;;;;;4937593;29;20659;-73
2023/02/06 17:20:01;;;;;;;8.17;2.90;;;5.80;99.90;;;;;;4938183;29;20213;-73
2023/02/06 17:22:28;;;;;;;8.50;2.60;;;5.70;99.90;;;;;;4938307;29;20215;-73
2023/02/06 17:24:54;;;;;;;12.47;3.30;;;5.70;99.90;;;;;;4938182;29;20362;-74
2023/02/06 17:27:23;;;;;;;8.10;3.23;;;5.70;99.90;;;;;;4938154;29;20213;-74
2023/02/06 17:29:52;;;;;;;11.70;3.27;;;5.60;99.90;;;;;;4937925;29;20235;-74
2023/02/06 17:32:21;;;;;;;10.00;3.53;;;5.60;99.90;;;;;;4937741;29;20205;-74
2023/02/06 17:34:48;;;;;;;10.80;2.70;;;5.50;99.90;;;;;;4919434;29;20241;-73
2023/02/06 17:37:19;;;;;;;12.80;3.30;;;5.40;99.90;;;;;;4917802;29;20218;-72
2023/02/06 17:39:47;;;;;;;9.33;2.40;;;5.50;99.90;;;;;;4919353;29;20213;-73
2023/02/06 17:42:14;;;;;;;8.70;2.33;;;5.40;99.90;;;;;;4917109;29;20214;-73
2023/02/06 17:44:42;;;;;;;8.73;2.77;;;5.30;99.90;;;;;;4917057;29;20234;-73
2023/02/06 17:47:10;;;;;;;9.80;2.83;;;5.40;99.90;;;;;;4917333;29;20747;-74
2023/02/06 17:49:37;;;;;;;7.57;2.27;;;5.30;99.90;;;;;;4926379;29;20213;-74
2023/02/06 17:52:04;;;;;;;9.07;2.67;;;5.30;99.90;;;;;;4936337;29;20951;-72
2023/02/06 17:54:31;;;;;;;9.67;2.77;;;5.30;99.90;;;;;;4923683;29;20241;-75
2023/02/06 17:56:58;;;;;;;5.90;2.30;;;5.30;99.90;;;;;;4917577;29;20225;-73
2023/02/06 17:59:24;;;;;;;9.27;2.10;;;5.30;99.90;;;;;;4916508;29;20277;-73
2023/02/06 18:01:53;;;;;;;12.20;2.47;;;5.40;99.90;;;;;;4917445;29;20764;-72
2023/02/06 18:04:20;;;;;;;7.87;2.43;;;5.40;99.90;;;;;;4926979;29;20237;-71
2023/02/06 18:06:47;;;;;;;8.53;2.53;;;5.40;99.90;;;;;;4936216;29;20272;-72
2023/02/06 18:09:13;;;;;;;5.33;2.50;;;5.40;99.90;;;;;;4936071;29;20672;-73
2023/02/06 18:11:40;;;;;;;5.47;2.50;;;5.50;99.90;;;;;;4935938;29;20215;-72
2023/02/06 18:14:07;;;;;;;15.77;4.03;;;5.50;99.90;;;;;;4926503;29;20261;-71
2023/02/06 18:16:34;;;;;;;17.90;3.90;;;5.70;99.90;;;;;;4917007;29;20241;-73
2023/02/06 18:19:02;;;;;;;11.17;4.33;;;5.70;99.90;;;;;;4917012;29;20209;-71
2023/02/06 18:21:30;;;;;;;9.93;3.60;;;5.70;99.90;;;;;;4923413;29;20304;-73
2023/02/06 18:23:58;;;;;;;9.67;3.70;;;5.60;99.90;;;;;;4924570;29;20232;-73
2023/02/06 18:26:26;;;;;;;12.53;3.80;;;5.60;99.90;;;;;;4916585;29;20223;-72
2023/02/06 18:28:53;;;;;;;6.27;3.30;;;5.50;99.90;;;;;;4916814;29;20214;-72
2023/02/06 18:31:23;;;;;;;6.83;2.00;;;5.50;99.90;;;;;;4916334;29;20626;-72
2023/02/06 18:33:50;;;;;;;8.67;2.43;;;5.30;99.90;;;;;;4916640;29;20232;-74
2023/02/06 18:36:19;;;;;;;11.93;2.80;;;5.20;99.90;;;;;;4919545;29;20671;-74
2023/02/06 18:38:45;;;;;;;10.17;3.13;;;5.10;99.90;;;;;;4916784;29;20209;-74
2023/02/06 18:43:53;;;;;;;8.60;3.10;;;4.90;99.90;;;;;;4915612;29;20236;-74
2023/02/06 18:46:20;;;;;;;11.40;3.70;;;5.00;99.90;;;;;;4916429;29;20228;-71
2023/02/06 18:48:47;;;;;;;10.23;3.20;;;4.90;99.90;;;;;;4916512;29;20209;-71
2023/02/06 18:51:14;;;;;;;13.27;3.33;;;4.70;99.90;;;;;;4916336;29;20304;-72
2023/02/06 18:53:42;;;;;;;13.90;3.60;;;4.60;99.90;;;;;;4915872;29;20276;-71
2023/02/06 18:56:09;;;;;;;4.67;2.47;;;4.50;99.90;;;;;;4915328;29;20723;-74
2023/02/06 18:58:36;;;;;;;9.33;2.90;;;4.40;99.90;;;;;;4916224;29;20216;-77
2023/02/06 19:01:11;;;;;;;9.63;3.40;;;4.30;99.90;;;;;;4915740;29;20213;-74
2023/02/06 19:03:39;;;;;;;11.13;3.87;;;4.20;99.90;;;;;;4916809;29;20723;-74
2023/02/06 19:06:11;;;;;;;11.57;3.73;;;4.10;99.90;;;;;;4917007;29;20221;-74
2023/02/06 19:08:38;;;;;;;12.20;4.57;;;4.00;99.90;;;;;;4917175;29;20209;-74
2023/02/06 19:11:06;;;;;;;12.33;4.57;;;4.10;99.90;;;;;;4917175;29;20220;-74
2023/02/06 19:13:33;;;;;;;10.90;3.73;;;4.00;99.90;;;;;;4917315;29;20226;-75
2023/02/06 19:16:05;;;;;;;8.83;3.23;;;3.90;99.90;;;;;;4917142;29;20241;-76
2023/02/06 19:18:33;;;;;;;7.07;3.57;;;3.90;99.90;;;;;;4917084;29;20257;-76
2023/02/06 19:21:00;;;;;;;12.93;4.33;;;3.90;99.90;;;;;;4917389;29;20216;-75
2023/02/06 19:23:27;;;;;;;8.47;4.17;;;3.80;99.90;;;;;;4916863;29;20731;-74
2023/02/06 19:25:54;;;;;;;22.30;4.20;;;3.80;99.90;;;;;;4918317;29;20296;-75
2023/02/06 19:28:22;;;;;;;9.30;3.80;;;3.80;99.90;;;;;;4916698;29;20737;-74
2023/02/06 19:30:49;;;;;;;8.53;3.57;;;3.60;99.90;;;;;;4916727;29;20744;-76
2023/02/06 19:33:16;;;;;;;11.87;4.30;;;3.60;99.90;;;;;;4916875;29;20233;-74
2023/02/06 19:35:43;;;;;;;11.33;4.57;;;3.40;99.90;;;;;;4913332;29;20238;-72
2023/02/06 19:38:10;;;;;;;8.23;4.20;;;3.50;99.90;;;;;;4916120;29;20233;-73
2023/02/06 19:40:37;;;;;;;14.30;5.07;;;3.30;99.90;;;;;;4917122;29;20209;-74
2023/02/06 19:43:04;;;;;;;10.83;5.03;;;3.30;99.90;;;;;;4916837;29;20226;-73
2023/02/06 19:45:35;;;;;;;9.50;5.37;;;3.20;99.90;;;;;;4917018;29;20589;-74
2023/02/06 19:48:05;;;;;;;12.13;5.97;;;3.20;99.90;;;;;;4917245;29;20228;-71
2023/02/06 19:50:33;;;;;;;19.47;7.20;;;3.20;99.90;;;;;;4917497;29;20213;-73
2023/02/06 19:53:00;;;;;;;16.87;7.57;;;3.10;99.90;;;;;;4918286;29;20272;-73
2023/02/06 19:55:27;;;;;;;26.63;8.77;;;3.10;99.90;;;;;;4916944;29;20237;-74
2023/02/06 19:57:54;;;;;;;17.97;7.13;;;3.20;99.90;;;;;;4916747;29;20213;-74
2023/02/06 20:00:21;;;;;;;15.47;7.37;;;3.10;99.90;;;;;;4916560;29;20216;-75
2023/02/06 20:02:49;;;;;;;27.53;8.47;;;3.10;99.90;;;;;;4916514;29;20239;-74
2023/02/06 20:05:19;;;;;;;15.30;7.63;;;3.10;99.90;;;;;;4916941;29;20300;-75
2023/02/06 20:07:45;;;;;;;16.47;7.40;;;3.00;99.90;;;;;;4916723;29;20209;-75
2023/02/06 20:10:12;;;;;;;16.60;6.93;;;2.90;99.90;;;;;;4916564;29;20209;-75
2023/02/06 20:12:39;;;;;;;13.17;7.37;;;2.90;99.90;;;;;;4916420;29;20308;-75
2023/02/06 20:15:06;;;;;;;20.90;7.63;;;2.80;99.90;;;;;;4916585;29;20296;-74
2023/02/06 20:17:33;;;;;;;15.10;7.43;;;2.80;99.90;;;;;;4916573;29;20691;-75
2023/02/06 20:20:01;;;;;;;19.10;7.77;;;2.80;99.90;;;;;;4916748;29;20300;-75
2023/02/06 20:22:28;;;;;;;20.83;8.40;;;2.80;99.90;;;;;;4919389;29;20748;-75
2023/02/06 20:24:55;;;;;;;17.83;7.87;;;2.80;99.90;;;;;;4920391;29;20220;-75
2023/02/06 20:27:22;;;;;;;26.30;8.70;;;2.70;99.90;;;;;;4920100;29;20304;-74
2023/02/06 20:29:48;;;;;;;17.63;8.53;;;2.70;99.90;;;;;;4920372;29;20217;-75
2023/02/06 20:32:18;;;;;;;18.03;7.93;;;2.80;99.90;;;;;;4920408;29;20304;-75
2023/02/06 20:34:45;;;;;;;21.63;7.40;;;2.80;99.90;;;;;;4920149;29;20319;-75
2023/02/06 20:37:13;;;;;;;18.17;7.70;;;2.70;99.90;;;;;;4920022;29;20332;-75
2023/02/06 20:39:40;;;;;;;18.43;6.90;;;2.60;99.90;;;;;;4919932;29;20716;-75
2023/02/06 20:42:07;;;;;;;16.73;6.87;;;2.60;99.90;;;;;;4920098;29;20244;-75
2023/02/06 20:44:33;;;;;;;19.23;7.43;;;2.40;99.90;;;;;;4919959;29;20735;-75
2023/02/06 20:47:00;;;;;;;15.27;7.67;;;2.40;99.90;;;;;;4919654;29;20347;-74
2023/02/06 20:49:29;;;;;;;19.00;6.43;;;2.40;99.90;;;;;;4919887;29;20214;-75
2023/02/06 20:51:56;;;;;;;18.23;6.70;;;2.40;99.90;;;;;;4919606;29;20220;-74
2023/02/06 20:54:24;;;;;;;18.03;6.77;;;2.50;99.90;;;;;;4919494;29;20764;-74
2023/02/06 20:56:51;;;;;;;12.60;5.77;;;2.40;99.90;;;;;;4919440;29;20726;-74
2023/02/06 20:59:20;;;;;;;16.40;6.17;;;2.30;99.90;;;;;;4919817;29;20307;-75
2023/02/06 21:01:47;;;;;;;17.83;6.33;;;2.30;99.90;;;;;;4919762;29;20216;-74
2023/02/06 21:04:16;;;;;;;12.27;5.57;;;2.30;99.90;;;;;;4919431;29;20226;-75
2023/02/06 21:06:43;;;;;;;18.80;6.23;;;2.30;99.90;;;;;;4919631;29;20677;-75
2023/02/06 21:09:11;;;;;;;13.80;6.27;;;2.20;99.90;;;;;;4919358;29;20220;-75
2023/02/06 21:11:40;;;;;;;12.83;5.63;;;2.20;99.90;;;;;;4919805;29;20210;-75
2023/02/06 21:14:08;;;;;;;16.83;6.73;;;2.20;99.90;;;;;;4919555;29;20226;-75
2023/02/06 21:16:36;;;;;;;12.63;5.73;;;2.20;99.90;;;;;;4919354;29;20248;-75
2023/02/06 21:19:04;;;;;;;14.73;6.40;;;2.30;99.90;;;;;;4919418;29;20225;-75
2023/02/06 21:21:32;;;;;;;13.70;5.60;;;2.20;99.90;;;;;;4919152;29;20214;-75
2023/02/06 21:23:58;;;;;;;13.40;6.70;;;2.20;99.90;;;;;;4919350;29;20320;-74
2023/02/06 21:26:27;;;;;;;18.83;6.67;;;2.10;99.90;;;;;;4919323;29;20736;-75
2023/02/06 21:28:57;;;;;;;17.67;7.90;;;2.20;99.90;;;;;;4919448;29;20227;-74
2023/02/06 21:31:31;;;;;;;17.63;7.53;;;2.20;99.90;;;;;;4919244;29;20304;-75
2023/02/06 21:34:01;;;;;;;15.87;7.07;;;2.20;99.90;;;;;;4917567;29;20260;-75
2023/02/06 21:36:29;;;;;;;11.47;5.77;;;2.10;99.90;;;;;;4919325;29;20332;-75
2023/02/06 21:38:56;;;;;;;12.60;6.33;;;2.10;99.90;;;;;;4919268;29;20214;-75
2023/02/06 21:41:23;;;;;;;22.23;5.73;;;2.10;99.90;;;;;;4918896;29;20205;-75
2023/02/06 21:43:50;;;;;;;17.47;7.80;;;2.00;99.90;;;;;;4919348;29;20244;-75
2023/02/06 21:46:18;;;;;;;16.10;7.03;;;2.10;99.90;;;;;;4919314;29;20228;-74
2023/02/06 21:48:45;;;;;;;14.77;5.67;;;2.10;99.90;;;;;;4919323;29;20220;-74
2023/02/06 21:51:14;;;;;;;17.93;6.10;;;2.00;99.90;;;;;;4918807;29;20237;-75
2023/02/06 21:53:41;;;;;;;14.87;5.30;;;2.00;99.90;;;;;;4918890;29;20233;-74
2023/02/06 21:56:11;;;;;;;11.83;5.57;;;2.00;99.90;;;;;;4918641;29;20229;-74
2023/02/06 21:58:38;;;;;;;18.50;5.00;;;2.10;99.90;;;;;;4918724;29;20210;-75
2023/02/06 22:01:05;;;;;;;15.70;5.10;;;2.00;99.90;;;;;;4918740;29;20212;-75
2023/02/06 22:03:34;;;;;;;12.80;4.80;;;2.00;99.90;;;;;;4918386;29;20731;-74
2023/02/06 22:06:07;;;;;;;13.50;4.40;;;1.90;99.90;;;;;;4918924;29;20220;-74
2023/02/06 22:08:34;;;;;;;16.37;4.63;;;1.80;99.90;;;;;;4918541;29;20593;-75
2023/02/06 22:11:01;;;;;;;17.03;4.67;;;1.80;99.90;;;;;;4918536;29;20209;-74
2023/02/06 22:13:28;;;;;;;10.47;4.53;;;1.70;99.90;;;;;;4918901;29;20233;-74
2023/02/06 22:15:55;;;;;;;14.67;5.10;;;1.70;99.90;;;;;;4918290;29;20237;-74
2023/02/06 22:18:22;;;;;;;19.60;4.67;;;1.70;99.90;;;;;;4918354;29;20209;-75
2023/02/06 22:20:50;;;;;;;13.40;4.97;;;1.80;99.90;;;;;;4918562;29;20213;-75
2023/02/06 22:23:17;;;;;;;12.33;5.17;;;1.90;99.90;;;;;;4918392;29;20251;-74
2023/02/06 22:25:47;;;;;;;11.67;4.73;;;1.90;99.90;;;;;;4918145;29;20214;-74
2023/02/06 22:28:14;;;;;;;11.93;4.40;;;2.00;99.90;;;;;;4918189;29;20220;-74
